Time;durP1;ratioP1;P1;durP2;ratioP2;P2;SDS_P1;SDS_P2;PMS_P1;PMS_P2;Temp;Humidity;BMP_temperature;BMP_pressure;BME280_temperature;BME280_humidity;BME280_pressure;Samples;Min_cycle;Max_cycle;Signal;HPM_P1;HPM_P2
2022/12/23 00:00:26;;;;;;;29.60;15.70;;;10.70;91.20;;;;;;9178775;19;20019;-65
2022/12/23 00:03:32;;;;;;;34.15;15.60;;;10.70;91.20;;;;;;9180416;19;20025;-63
2022/12/23 00:06:36;;;;;;;30.80;15.35;;;10.70;91.20;;;;;;9178724;19;20015;-63
2022/12/23 00:09:41;;;;;;;27.48;15.38;;;10.80;91.20;;;;;;9181781;19;20619;-67
2022/12/23 00:16:04;;;;;;;28.10;15.45;;;10.80;91.20;;;;;;9176365;19;20083;-63
2022/12/23 00:19:08;;;;;;;28.15;15.50;;;10.80;91.20;;;;;;9180933;19;20014;-69
2022/12/23 00:22:12;;;;;;;26.52;15.55;;;10.80;91.20;;;;;;9177206;19;20015;-63
2022/12/23 00:25:17;;;;;;;;;;;10.80;91.20;;;;;;9179536;19;20038;-65
2022/12/23 00:28:23;;;;;;;30.33;15.52;;;10.80;91.20;;;;;;9180645;19;20332;-65
2022/12/23 00:31:27;;;;;;;28.95;14.48;;;10.80;91.20;;;;;;9180474;19;20487;-65
2022/12/23 00:34:31;;;;;;;32.47;14.40;;;10.80;91.20;;;;;;9179220;19;20360;-65
2022/12/23 00:37:34;;;;;;;27.77;14.85;;;10.80;91.20;;;;;;9178596;19;20053;-63
2022/12/23 00:43:57;;;;;;;24.10;14.30;;;10.80;91.20;;;;;;9177554;19;20017;-66
2022/12/23 00:47:01;;;;;;;22.48;14.00;;;10.90;91.20;;;;;;9180444;19;20014;-66
2022/12/23 00:50:03;;;;;;;20.30;11.68;;;10.90;91.20;;;;;;9178773;19;20378;-64
2022/12/23 00:53:08;;;;;;;23.48;13.00;;;10.90;91.30;;;;;;9177771;19;20051;-64
2022/12/23 00:56:13;;;;;;;22.63;12.45;;;10.90;91.30;;;;;;9176895;19;20011;-64
2022/12/23 00:59:17;;;;;;;22.15;11.85;;;10.90;91.30;;;;;;9179837;19;20018;-64
2022/12/23 01:05:38;;;;;;;24.27;12.63;;;10.90;91.30;;;;;;9176978;19;19943;-64
2022/12/23 01:08:42;;;;;;;17.55;10.18;;;10.90;91.20;;;;;;9177932;19;20035;-66
2022/12/23 01:11:48;;;;;;;20.02;10.88;;;10.90;91.20;;;;;;9179471;19;20078;-65
2022/12/23 01:14:52;;;;;;;18.02;10.50;;;10.90;91.30;;;;;;9171801;19;20021;-65
2022/12/23 01:17:55;;;;;;;17.98;9.93;;;10.90;91.30;;;;;;9178304;19;20081;-64
2022/12/23 01:21:03;;;;;;;18.00;11.15;;;11.00;91.30;;;;;;9179727;19;20011;-64
2022/12/23 01:24:08;;;;;;;17.58;10.13;;;10.90;91.30;;;;;;9176023;19;20018;-64
2022/12/23 01:27:13;;;;;;;17.45;10.10;;;10.90;91.30;;;;;;9178329;19;20014;-65
2022/12/23 01:30:17;;;;;;;15.82;10.50;;;11.00;91.30;;;;;;9175913;19;20490;-66
2022/12/23 01:33:21;;;;;;;19.42;10.55;;;11.00;91.30;;;;;;9178423;19;20478;-66
2022/12/23 01:36:25;;;;;;;18.10;10.23;;;11.00;91.40;;;;;;9178585;19;20014;-66
2022/12/23 01:39:29;;;;;;;17.35;10.30;;;10.90;91.30;;;;;;9178363;19;20017;-66
2022/12/23 01:42:46;;;;;;;21.13;10.27;;;11.00;91.40;;;;;;9177848;19;20019;-65
2022/12/23 01:45:51;;;;;;;17.52;10.25;;;11.00;91.40;;;;;;9175207;19;20014;-64
2022/12/23 01:48:54;;;;;;;;;;;11.00;91.40;;;;;;9178107;19;20086;-65
2022/12/23 01:51:58;;;;;;;14.23;8.40;;;11.00;91.40;;;;;;9175743;19;19942;-64
2022/12/23 01:55:02;;;;;;;15.98;9.68;;;11.00;91.30;;;;;;9178035;19;20014;-67
2022/12/23 01:58:10;;;;;;;;;;;11.00;91.40;;;;;;9178299;19;20034;-65
2022/12/23 02:04:31;;;;;;;21.42;9.25;;;11.00;91.30;;;;;;9173468;19;20014;-64
2022/12/23 02:11:19;;;;;;;15.73;10.02;;;11.00;91.40;;;;;;9177078;19;20630;-64
2022/12/23 02:18:06;;;;;;;21.20;12.48;;;11.00;91.70;;;;;;9176341;19;20018;-64
2022/12/23 02:21:21;;;;;;;29.05;13.98;;;11.00;91.40;;;;;;9175182;19;20359;-62
2022/12/23 02:24:52;;;;;;;29.10;14.35;;;11.00;91.40;;;;;;9174784;19;20014;-65
2022/12/23 02:28:14;;;;;;;28.33;14.63;;;11.00;91.40;;;;;;9174572;19;20074;-64
2022/12/23 02:31:26;;;;;;;31.13;14.52;;;11.00;91.40;;;;;;9174012;19;20011;-66
2022/12/23 02:34:37;;;;;;;28.48;14.20;;;10.90;91.40;;;;;;9175594;19;20014;-65
2022/12/23 02:37:51;;;;;;;28.95;14.35;;;10.90;91.40;;;;;;9175522;19;20018;-64
2022/12/23 02:41:04;;;;;;;29.63;14.05;;;10.90;91.40;;;;;;9176048;19;20023;-64
2022/12/23 02:44:14;;;;;;;29.50;14.52;;;10.90;91.40;;;;;;9175197;19;20015;-64
2022/12/23 02:47:23;;;;;;;31.85;15.65;;;10.90;91.40;;;;;;9176294;19;20021;-65
2022/12/23 02:50:32;;;;;;;27.88;14.52;;;10.90;91.70;;;;;;9173518;19;20042;-64
2022/12/23 02:53:40;;;;;;;30.48;14.43;;;10.90;91.40;;;;;;9175369;19;20018;-64
2022/12/23 02:56:48;;;;;;;26.73;14.48;;;10.90;91.40;;;;;;9173608;19;20453;-64
2022/12/23 02:59:53;;;;;;;25.38;14.13;;;10.90;91.40;;;;;;9175325;19;20505;-64
2022/12/23 03:02:58;;;;;;;24.85;14.05;;;10.80;91.40;;;;;;9174751;19;20025;-65
2022/12/23 03:06:08;;;;;;;30.67;14.88;;;10.80;91.40;;;;;;9172041;19;20014;-65
2022/12/23 03:09:22;;;;;;;28.15;13.85;;;10.80;91.40;;;;;;9174615;19;20029;-65
2022/12/23 03:12:37;;;;;;;25.80;13.90;;;10.80;91.40;;;;;;9174263;19;20023;-66
2022/12/23 03:15:49;;;;;;;24.42;13.00;;;10.80;91.40;;;;;;9172694;19;20014;-64
2022/12/23 03:19:05;;;;;;;25.10;13.63;;;10.80;91.40;;;;;;9181430;19;20032;-64
2022/12/23 03:22:17;;;;;;;28.10;13.95;;;10.80;91.40;;;;;;9180613;19;20011;-65
2022/12/23 03:25:25;;;;;;;23.77;13.18;;;10.80;91.40;;;;;;9181904;19;20040;-65
2022/12/23 03:28:34;;;;;;;22.50;13.60;;;10.70;91.30;;;;;;9181481;19;20018;-66
2022/12/23 03:31:40;;;;;;;26.83;14.30;;;10.70;91.40;;;;;;9183596;19;20021;-65
2022/12/23 03:34:50;;;;;;;27.25;14.15;;;10.70;91.40;;;;;;9182118;19;20019;-65
2022/12/23 03:37:56;;;;;;;28.40;15.15;;;10.70;91.40;;;;;;9182041;19;20043;-64
2022/12/23 03:41:06;;;;;;;24.88;14.80;;;10.70;91.40;;;;;;9182724;19;20359;-65
2022/12/23 03:44:14;;;;;;;26.17;15.02;;;10.70;91.40;;;;;;9180114;19;20018;-66
2022/12/23 03:47:23;;;;;;;29.17;15.13;;;10.60;91.40;;;;;;9180351;19;20539;-66
2022/12/23 03:50:30;;;;;;;26.02;15.13;;;10.60;91.40;;;;;;9182612;19;20015;-66
2022/12/23 03:53:38;;;;;;;24.58;15.48;;;10.60;91.40;;;;;;9182411;19;20416;-65
2022/12/23 03:56:47;;;;;;;29.48;16.10;;;10.60;91.40;;;;;;9180869;19;20050;-64
2022/12/23 03:59:52;;;;;;;22.50;14.35;;;10.60;91.40;;;;;;9179316;19;20023;-66
2022/12/23 04:03:01;;;;;;;26.23;14.27;;;10.60;91.40;;;;;;9181814;19;20030;-64
2022/12/23 04:06:12;;;;;;;26.42;15.13;;;10.60;91.40;;;;;;9177750;19;20044;-65
2022/12/23 04:09:16;;;;;;;25.60;15.15;;;10.50;91.40;;;;;;9179931;19;20366;-64
2022/12/23 04:12:29;;;;;;;29.48;16.02;;;10.60;91.40;;;;;;9181569;19;20044;-64
2022/12/23 04:15:33;;;;;;;28.45;15.50;;;10.50;91.40;;;;;;9174582;19;20018;-64
2022/12/23 04:18:36;;;;;;;;;;;10.60;91.40;;;;;;9181933;19;20361;-64
2022/12/23 04:21:42;;;;;;;24.98;15.20;;;10.50;91.40;;;;;;9179631;19;20645;-66
2022/12/23 04:24:46;;;;;;;28.75;15.05;;;10.60;91.40;;;;;;9177790;19;20102;-64
2022/12/23 04:27:50;;;;;;;26.52;15.85;;;10.50;91.30;;;;;;9178868;19;20011;-64
2022/12/23 04:30:53;;;;;;;27.30;16.08;;;10.50;91.30;;;;;;9181435;19;20014;-66
2022/12/23 04:33:58;;;;;;;28.08;16.77;;;10.50;91.30;;;;;;9180544;19;20467;-67
2022/12/23 04:37:04;;;;;;;31.38;18.08;;;10.50;91.30;;;;;;9180101;19;20029;-64
2022/12/23 04:40:08;;;;;;;35.22;18.08;;;10.50;91.30;;;;;;9177242;19;20018;-64
2022/12/23 04:43:12;;;;;;;33.03;17.38;;;10.50;91.30;;;;;;9180297;19;20015;-64
2022/12/23 04:46:16;;;;;;;37.03;18.23;;;10.50;91.30;;;;;;9176306;19;20047;-64
2022/12/23 04:49:20;;;;;;;37.67;18.38;;;10.50;91.40;;;;;;9178751;19;20022;-67
2022/12/23 04:52:26;;;;;;;40.85;19.27;;;10.40;91.30;;;;;;9178936;19;20928;-64
2022/12/23 04:55:29;;;;;;;36.90;18.00;;;10.40;91.30;;;;;;9180009;19;20020;-64
2022/12/23 04:58:33;;;;;;;39.40;18.58;;;10.40;91.30;;;;;;9179603;19;20755;-64
2022/12/23 05:01:37;;;;;;;44.80;17.52;;;10.40;91.30;;;;;;9178371;19;20476;-65
2022/12/23 05:04:41;;;;;;;42.20;17.67;;;10.40;91.40;;;;;;9176585;19;20032;-64
2022/12/23 05:07:50;;;;;;;45.58;18.77;;;10.40;91.30;;;;;;9178984;19;20439;-65
2022/12/23 05:10:54;;;;;;;47.78;19.25;;;10.40;91.40;;;;;;9179373;19;20116;-65
2022/12/23 05:13:58;;;;;;;46.55;20.15;;;10.30;91.30;;;;;;9173539;19;20037;-64
2022/12/23 05:17:01;;;;;;;56.50;21.35;;;10.30;91.30;;;;;;9177027;19;20025;-65
2022/12/23 05:20:11;;;;;;;53.28;21.13;;;10.30;91.30;;;;;;9177029;19;20023;-65
2022/12/23 05:23:17;;;;;;;46.88;20.90;;;10.30;91.40;;;;;;9177106;19;20018;-64
2022/12/23 05:26:21;;;;;;;54.95;21.35;;;10.30;91.30;;;;;;9174277;19;20471;-65
2022/12/23 05:29:25;;;;;;;54.97;20.90;;;10.30;91.40;;;;;;9178586;19;20010;-65
2022/12/23 05:32:28;;;;;;;45.13;20.42;;;10.30;91.40;;;;;;9178706;19;20388;-64
2022/12/23 05:35:32;;;;;;;58.45;22.65;;;10.30;91.40;;;;;;9178871;19;20468;-66
2022/12/23 05:38:38;;;;;;;53.22;20.65;;;10.30;91.40;;;;;;9177191;19;20015;-65
2022/12/23 05:41:42;;;;;;;50.38;19.73;;;10.30;91.40;;;;;;9178034;19;20014;-66
2022/12/23 05:44:45;;;;;;;;;;;10.30;91.30;;;;;;9175372;19;20010;-64
2022/12/23 05:47:49;;;;;;;30.27;13.63;;;10.20;91.30;;;;;;9177549;19;20690;-64
2022/12/23 05:50:54;;;;;;;30.52;13.05;;;10.20;91.30;;;;;;9178239;19;20563;-66
2022/12/23 05:53:59;;;;;;;28.58;13.48;;;10.20;91.30;;;;;;9177377;19;20022;-64
2022/12/23 05:57:03;;;;;;;30.48;13.38;;;10.20;91.30;;;;;;9178048;19;20352;-66
2022/12/23 06:00:09;;;;;;;29.63;13.55;;;10.20;91.30;;;;;;9175366;19;20471;-65
2022/12/23 06:03:15;;;;;;;31.48;13.93;;;10.20;91.30;;;;;;9177404;19;20010;-64
2022/12/23 06:06:19;;;;;;;32.28;14.15;;;10.10;91.30;;;;;;9174614;19;20633;-67
2022/12/23 06:09:25;;;;;;;32.13;14.68;;;10.10;91.30;;;;;;9177586;19;20011;-64
2022/12/23 06:12:29;;;;;;;32.53;13.75;;;10.10;91.40;;;;;;9176385;19;20030;-64
2022/12/23 06:15:32;;;;;;;34.38;14.98;;;10.10;91.30;;;;;;9168081;19;20018;-64
2022/12/23 06:18:36;;;;;;;28.40;13.57;;;10.10;91.30;;;;;;9175084;19;20037;-65
2022/12/23 06:21:40;;;;;;;30.80;13.95;;;10.10;91.30;;;;;;9176498;19;20015;-64
2022/12/23 06:24:46;;;;;;;32.25;14.15;;;10.10;91.30;;;;;;9172572;19;20024;-65
2022/12/23 06:27:49;;;;;;;32.38;13.85;;;10.10;91.30;;;;;;9172381;19;20042;-64
2022/12/23 06:30:54;;;;;;;30.88;13.55;;;10.10;91.30;;;;;;9168273;19;20019;-64
2022/12/23 06:33:58;;;;;;;29.40;13.73;;;10.10;91.30;;;;;;9173438;19;20022;-65
2022/12/23 06:37:02;;;;;;;40.80;14.90;;;10.10;91.30;;;;;;9172814;19;20022;-65
2022/12/23 06:40:09;;;;;;;34.78;15.98;;;10.10;91.30;;;;;;9173629;19;20025;-66
2022/12/23 06:43:13;;;;;;;31.38;14.27;;;10.10;91.30;;;;;;9173876;19;20021;-67
2022/12/23 06:46:16;;;;;;;;;;;10.10;91.30;;;;;;9166460;19;20082;-64
2022/12/23 06:49:20;;;;;;;38.72;16.33;;;10.10;91.30;;;;;;9166805;19;19915;-64
2022/12/23 06:52:24;;;;;;;37.75;15.82;;;10.10;91.20;;;;;;9174209;19;20302;-66
2022/12/23 06:55:29;;;;;;;35.20;14.13;;;10.10;91.20;;;;;;9174552;19;20310;-66
2022/12/23 06:58:33;;;;;;;35.03;15.25;;;10.10;91.30;;;;;;9173686;19;20357;-64
2022/12/23 07:01:37;;;;;;;43.45;17.23;;;10.00;91.20;;;;;;9174685;19;20396;-64
2022/12/23 07:04:41;;;;;;;;;;;10.10;91.30;;;;;;9174557;19;20089;-64
2022/12/23 07:07:44;;;;;;;37.33;15.30;;;10.00;91.20;;;;;;9176449;19;19930;-64
2022/12/23 07:10:50;;;;;;;40.60;16.27;;;10.00;91.20;;;;;;9175088;19;20027;-63
2022/12/23 07:13:54;;;;;;;37.33;15.20;;;10.00;91.20;;;;;;9170127;19;20018;-65
2022/12/23 07:16:58;;;;;;;35.50;14.75;;;10.00;91.20;;;;;;9179797;19;20019;-64
2022/12/23 07:20:02;;;;;;;34.72;12.23;;;10.00;91.30;;;;;;9180647;19;20520;-66
2022/12/23 07:23:06;;;;;;;27.38;12.65;;;10.00;91.30;;;;;;9180561;19;20139;-66
2022/12/23 07:26:12;;;;;;;27.50;11.75;;;10.00;91.30;;;;;;9176912;19;20018;-63
2022/12/23 07:29:15;;;;;;;31.15;12.82;;;10.00;91.30;;;;;;9180101;19;20022;-64
2022/12/23 07:32:19;;;;;;;31.85;12.80;;;10.00;91.30;;;;;;9181219;19;20024;-65
2022/12/23 07:35:23;;;;;;;28.98;13.45;;;10.00;91.30;;;;;;9180429;19;20015;-65
2022/12/23 07:38:27;;;;;;;28.92;12.02;;;9.90;91.20;;;;;;9181339;19;20007;-66
2022/12/23 07:41:32;;;;;;;;;;;9.90;91.20;;;;;;9182584;19;20021;-62
2022/12/23 07:44:42;;;;;;;27.83;11.23;;;9.90;91.20;;;;;;9177124;19;19982;-66
2022/12/23 07:47:46;;;;;;;25.75;11.63;;;9.90;91.20;;;;;;9179861;19;20449;-63
2022/12/23 07:50:50;;;;;;;;;;;9.90;91.20;;;;;;9177744;19;20014;-63
2022/12/23 07:53:54;;;;;;;34.03;13.55;;;9.90;91.20;;;;;;9180047;19;20272;-63
2022/12/23 07:56:59;;;;;;;29.33;13.43;;;9.90;91.20;;;;;;9177700;19;20010;-64
2022/12/23 08:00:04;;;;;;;31.83;11.88;;;9.90;91.20;;;;;;9180019;19;20018;-65
2022/12/23 08:03:15;;;;;;;32.53;13.15;;;9.90;91.20;;;;;;9180795;19;20017;-63
2022/12/23 08:06:19;;;;;;;;;;;9.90;91.20;;;;;;9179351;19;20014;-64
2022/12/23 08:09:23;;;;;;;32.13;11.77;;;9.90;91.20;;;;;;9178620;19;19930;-64
2022/12/23 08:12:28;;;;;;;32.35;12.00;;;9.90;91.20;;;;;;9177107;19;20027;-64
2022/12/23 08:15:32;;;;;;;30.08;11.70;;;9.90;91.20;;;;;;9172615;19;20483;-64
2022/12/23 08:18:37;;;;;;;29.05;11.52;;;9.90;91.30;;;;;;9178524;19;20021;-63
2022/12/23 08:21:41;;;;;;;35.58;12.85;;;9.90;91.20;;;;;;9177898;19;20025;-64
2022/12/23 08:24:45;;;;;;;31.88;12.02;;;9.90;91.20;;;;;;9179645;19;20018;-63
2022/12/23 08:27:51;;;;;;;31.58;12.82;;;9.90;91.30;;;;;;9178021;19;20033;-63
2022/12/23 08:30:56;;;;;;;35.28;13.48;;;9.90;91.20;;;;;;9177619;19;20313;-63
2022/12/23 08:34:01;;;;;;;29.02;12.77;;;9.90;91.20;;;;;;9178933;19;20019;-65
2022/12/23 08:37:05;;;;;;;35.38;12.55;;;9.90;91.30;;;;;;9176659;19;20010;-64
2022/12/23 08:40:09;;;;;;;;;;;9.90;91.30;;;;;;9180710;19;20012;-67
2022/12/23 08:43:15;;;;;;;29.13;12.23;;;9.90;91.30;;;;;;9178800;19;20252;-65
2022/12/23 08:46:19;;;;;;;30.40;12.80;;;9.90;91.20;;;;;;9176194;19;20082;-64
2022/12/23 08:49:24;;;;;;;37.22;14.32;;;9.90;91.20;;;;;;9177460;19;20389;-63
2022/12/23 08:52:28;;;;;;;37.03;14.45;;;9.90;91.30;;;;;;9177996;19;20694;-64
2022/12/23 08:55:32;;;;;;;42.70;15.43;;;9.90;91.30;;;;;;9177095;19;20017;-65
2022/12/23 08:58:40;;;;;;;36.90;13.80;;;9.90;91.30;;;;;;9175605;19;20010;-64
2022/12/23 09:01:44;;;;;;;37.00;14.52;;;9.90;91.30;;;;;;9177601;19;20010;-64
2022/12/23 09:04:48;;;;;;;38.05;15.07;;;9.90;91.30;;;;;;9172184;19;20026;-64
2022/12/23 09:07:52;;;;;;;41.72;15.52;;;9.90;91.30;;;;;;9171470;19;20038;-64
2022/12/23 09:10:56;;;;;;;39.40;14.45;;;9.90;91.30;;;;;;9169786;19;20018;-65
2022/12/23 09:14:03;;;;;;;35.90;13.52;;;9.90;91.30;;;;;;9162683;19;20014;-65
2022/12/23 09:17:07;;;;;;;33.03;14.02;;;9.90;91.30;;;;;;9169323;19;20023;-65
2022/12/23 09:20:11;;;;;;;38.00;14.18;;;9.90;91.30;;;;;;9171178;19;20018;-65
2022/12/23 09:23:15;;;;;;;33.60;12.23;;;9.90;91.30;;;;;;9167446;19;20022;-63
2022/12/23 09:26:21;;;;;;;38.88;13.68;;;9.90;91.30;;;;;;9169046;19;20106;-66
2022/12/23 09:29:27;;;;;;;34.97;13.10;;;9.90;91.60;;;;;;9170532;19;20052;-67
2022/12/23 09:32:32;;;;;;;44.70;15.40;;;9.90;91.30;;;;;;9177935;19;20031;-65
2022/12/23 09:35:36;;;;;;;36.03;13.98;;;9.90;91.30;;;;;;9178407;19;20024;-66
2022/12/23 09:38:39;;;;;;;35.13;13.50;;;10.00;91.30;;;;;;9176762;19;20019;-66
2022/12/23 09:42:06;;;;;;;39.22;13.90;;;10.00;91.30;;;;;;9177011;19;20011;-65
2022/12/23 09:45:20;;;;;;;36.83;14.15;;;10.00;91.30;;;;;;9176729;19;20018;-64
2022/12/23 09:48:27;;;;;;;34.47;13.23;;;10.00;91.30;;;;;;9177334;19;21584;-64
2022/12/23 09:51:32;;;;;;;34.72;14.10;;;10.00;91.30;;;;;;9174269;19;20747;-64
2022/12/23 09:54:42;;;;;;;38.08;13.70;;;10.00;91.30;;;;;;9177083;19;20071;-65
2022/12/23 09:57:55;;;;;;;34.42;13.07;;;10.00;91.30;;;;;;9170145;19;20475;-64
2022/12/23 10:01:14;;;;;;;35.08;12.23;;;10.00;91.30;;;;;;9171099;19;20057;-64
2022/12/23 10:04:42;;;;;;;32.17;11.82;;;10.00;91.30;;;;;;9171537;19;20014;-65
2022/12/23 10:07:50;;;;;;;28.58;11.88;;;10.00;91.30;;;;;;9172442;19;20047;-66
2022/12/23 10:10:59;;;;;;;35.28;13.55;;;10.00;91.60;;;;;;9171777;19;20015;-67
2022/12/23 10:14:10;;;;;;;36.70;12.48;;;10.00;91.30;;;;;;9171741;19;20022;-64
2022/12/23 10:17:26;;;;;;;35.72;12.55;;;10.00;91.30;;;;;;9174862;19;20030;-66
2022/12/23 10:20:38;;;;;;;33.92;12.68;;;10.00;91.30;;;;;;9176523;19;20019;-64
2022/12/23 10:23:47;;;;;;;35.28;12.60;;;10.00;91.40;;;;;;9174837;19;20030;-65
2022/12/23 10:26:54;;;;;;;37.03;13.57;;;10.00;91.40;;;;;;9173139;19;20380;-63
2022/12/23 10:30:01;;;;;;;35.20;13.07;;;10.00;91.40;;;;;;9175326;19;20015;-66
2022/12/23 10:33:35;;;;;;;39.72;14.32;;;10.00;91.30;;;;;;9173761;19;20011;-63
2022/12/23 10:36:45;;;;;;;;;;;10.10;91.40;;;;;;9177629;19;20019;-64
2022/12/23 10:40:09;;;;;;;41.17;14.85;;;10.10;91.40;;;;;;9174577;19;19940;-66
2022/12/23 10:43:33;;;;;;;32.70;10.90;;;10.10;91.30;;;;;;9173849;19;20038;-64
2022/12/23 10:46:40;;;;;;;;;;;10.10;91.30;;;;;;9168924;19;20015;-64
2022/12/23 10:49:57;;;;;;;43.60;14.48;;;10.10;91.40;;;;;;9174572;19;19922;-65
2022/12/23 10:53:05;;;;;;;40.50;14.77;;;10.10;91.30;;;;;;9175024;19;20548;-65
2022/12/23 10:56:09;;;;;;;41.75;13.68;;;10.10;91.30;;;;;;9171754;19;20026;-63
2022/12/23 10:59:16;;;;;;;40.85;14.77;;;10.10;91.30;;;;;;9170760;19;20034;-64
2022/12/23 11:02:43;;;;;;;32.75;13.00;;;10.20;91.40;;;;;;9169914;19;20017;-65
2022/12/23 11:05:52;;;;;;;40.90;13.93;;;10.20;91.40;;;;;;9172103;19;20026;-64
2022/12/23 11:08:57;;;;;;;40.72;13.15;;;10.20;91.40;;;;;;9172350;19;20086;-63
2022/12/23 11:12:03;;;;;;;33.53;13.85;;;10.20;91.40;;;;;;9172685;19;20372;-65
2022/12/23 11:15:25;;;;;;;39.22;14.38;;;10.20;91.40;;;;;;9166514;19;20482;-64
2022/12/23 11:18:28;;;;;;;45.47;15.68;;;10.20;91.40;;;;;;9172743;19;20018;-64
2022/12/23 11:21:35;;;;;;;42.58;15.68;;;10.20;91.40;;;;;;9172709;19;20015;-66
2022/12/23 11:24:39;;;;;;;44.97;17.10;;;10.20;91.40;;;;;;9173946;19;20057;-64
2022/12/23 11:27:47;;;;;;;54.03;17.27;;;10.20;91.30;;;;;;9173816;19;20026;-65
2022/12/23 11:30:56;;;;;;;49.47;16.20;;;10.20;91.30;;;;;;9172805;19;20023;-66
2022/12/23 11:34:02;;;;;;;54.80;17.80;;;10.20;91.30;;;;;;9172503;19;20376;-68
2022/12/23 11:37:23;;;;;;;48.65;15.73;;;10.20;91.40;;;;;;9181001;19;20105;-65
2022/12/23 11:40:29;;;;;;;41.75;15.95;;;10.30;91.40;;;;;;9181715;19;20026;-65
2022/12/23 11:43:34;;;;;;;48.67;16.55;;;10.20;91.40;;;;;;9181137;19;20017;-64
2022/12/23 11:46:38;;;;;;;47.95;16.30;;;10.30;91.40;;;;;;9178791;19;20014;-64
2022/12/23 11:49:49;;;;;;;51.50;16.50;;;10.20;91.30;;;;;;9182361;19;20055;-64
2022/12/23 11:53:02;;;;;;;50.22;16.70;;;10.30;91.40;;;;;;9182161;19;20014;-65
2022/12/23 11:56:08;;;;;;;46.25;15.75;;;10.20;91.30;;;;;;9176843;19;20030;-67
2022/12/23 11:59:33;;;;;;;45.90;15.85;;;10.20;91.40;;;;;;9180454;19;20503;-64
2022/12/23 12:02:41;;;;;;;49.22;16.75;;;10.30;91.40;;;;;;9180795;19;20111;-65
2022/12/23 12:05:50;;;;;;;49.65;16.52;;;10.30;91.40;;;;;;9179766;19;20522;-66
2022/12/23 12:08:59;;;;;;;51.03;18.23;;;10.30;91.40;;;;;;9180654;19;20007;-67
2022/12/23 12:12:08;;;;;;;48.63;16.52;;;10.30;91.40;;;;;;9175733;19;20019;-64
2022/12/23 12:15:27;;;;;;;42.33;16.27;;;10.30;91.40;;;;;;9169065;19;20042;-67
2022/12/23 12:18:31;;;;;;;48.45;17.45;;;10.30;91.40;;;;;;9177407;19;20114;-65
2022/12/23 12:21:39;;;;;;;54.72;21.27;;;10.30;91.40;;;;;;9176437;19;20007;-64
2022/12/23 12:24:53;;;;;;;50.05;18.98;;;10.30;91.40;;;;;;9172421;19;20044;-66
2022/12/23 12:28:01;;;;;;;45.88;16.90;;;10.30;91.40;;;;;;9171800;19;20019;-66
2022/12/23 12:31:13;;;;;;;44.55;16.25;;;10.30;91.30;;;;;;9172711;19;20038;-65
2022/12/23 12:34:31;;;;;;;42.90;15.45;;;10.30;91.30;;;;;;9172424;19;20478;-64
2022/12/23 12:37:39;;;;;;;46.83;16.60;;;10.30;91.30;;;;;;9171536;19;20022;-65
2022/12/23 12:40:49;;;;;;;38.33;15.00;;;10.30;91.40;;;;;;9180169;19;20018;-64
2022/12/23 12:44:02;;;;;;;43.92;15.70;;;10.20;91.30;;;;;;9180370;19;20727;-65
2022/12/23 12:47:13;;;;;;;43.53;16.27;;;10.30;91.40;;;;;;9174178;19;20014;-66
2022/12/23 12:50:45;;;;;;;44.08;17.02;;;10.30;91.40;;;;;;9181157;19;20366;-65
2022/12/23 12:53:59;;;;;;;47.30;17.63;;;10.30;91.40;;;;;;9180712;19;20372;-64
2022/12/23 12:57:15;;;;;;;42.28;17.25;;;10.30;91.40;;;;;;9178115;19;20015;-64
2022/12/23 13:00:21;;;;;;;47.90;19.02;;;10.30;91.40;;;;;;9178243;19;20015;-65
2022/12/23 13:03:47;;;;;;;51.20;18.23;;;10.20;91.40;;;;;;9177017;19;20019;-64
2022/12/23 13:07:02;;;;;;;52.83;20.08;;;10.20;91.40;;;;;;9174652;19;20098;-64
2022/12/23 13:10:16;;;;;;;53.22;21.67;;;10.20;91.40;;;;;;9178070;19;20070;-63
2022/12/23 13:13:33;;;;;;;49.28;19.77;;;10.30;91.50;;;;;;9172623;19;20124;-65
2022/12/23 13:16:45;;;;;;;58.05;19.65;;;10.30;91.50;;;;;;9178282;19;20350;-65
2022/12/23 13:19:56;;;;;;;48.63;19.13;;;10.30;91.50;;;;;;9178292;19;20018;-64
2022/12/23 13:23:15;;;;;;;49.10;19.75;;;10.20;91.50;;;;;;9179848;19;20042;-65
2022/12/23 13:26:52;;;;;;;57.88;21.00;;;10.20;91.50;;;;;;9176740;19;20038;-65
2022/12/23 13:30:13;;;;;;;50.25;19.92;;;10.20;91.40;;;;;;9179761;19;20018;-65
2022/12/23 13:33:27;;;;;;;50.97;19.75;;;10.30;91.50;;;;;;9177252;19;20081;-67
2022/12/23 13:36:43;;;;;;;47.03;18.92;;;10.20;91.40;;;;;;9177560;19;20002;-64
2022/12/23 13:39:57;;;;;;;53.47;20.75;;;10.20;91.50;;;;;;9179033;19;20019;-64
2022/12/23 13:43:06;;;;;;;53.97;20.00;;;10.30;91.50;;;;;;9177065;19;20026;-64
2022/12/23 13:46:21;;;;;;;51.15;19.90;;;10.30;91.50;;;;;;9176285;19;20515;-63
2022/12/23 13:49:46;;;;;;;47.85;20.23;;;10.20;91.50;;;;;;9177369;19;20467;-64
2022/12/23 13:53:07;;;;;;;47.17;18.10;;;10.30;91.50;;;;;;9179064;19;20010;-65
2022/12/23 13:56:26;;;;;;;45.80;18.13;;;10.20;91.50;;;;;;9178382;19;20034;-66
2022/12/23 13:59:39;;;;;;;43.42;18.33;;;10.20;91.50;;;;;;9176134;19;20018;-66
2022/12/23 14:02:51;;;;;;;43.53;16.90;;;10.20;91.50;;;;;;9176367;19;20478;-65
2022/12/23 14:05:55;;;;;;;45.65;17.77;;;10.30;91.50;;;;;;9175632;19;20011;-64
2022/12/23 14:08:58;;;;;;;41.88;17.70;;;10.30;91.50;;;;;;9177964;19;20019;-67
2022/12/23 14:12:22;;;;;;;40.40;17.20;;;10.30;91.50;;;;;;9177980;19;20019;-64
2022/12/23 14:15:45;;;;;;;44.30;18.20;;;10.30;91.50;;;;;;9170415;19;20073;-66
2022/12/23 14:19:41;;;;;;;35.33;15.10;;;10.30;91.50;;;;;;9176142;19;20022;-63
2022/12/23 14:23:05;;;;;;;36.67;15.15;;;10.20;91.50;;;;;;9173870;19;20021;-65
2022/12/23 14:26:31;;;;;;;33.35;15.15;;;10.30;91.50;;;;;;9175921;19;20019;-65
2022/12/23 14:29:46;;;;;;;33.08;15.27;;;10.20;91.50;;;;;;9175933;19;20014;-65
2022/12/23 14:32:53;;;;;;;34.45;15.27;;;10.20;91.50;;;;;;9177064;19;20383;-65
2022/12/23 14:35:58;;;;;;;36.25;15.45;;;10.30;91.50;;;;;;9177145;19;20027;-65
2022/12/23 14:39:38;;;;;;;33.67;14.82;;;10.30;91.50;;;;;;9176475;19;20094;-65
2022/12/23 14:42:45;;;;;;;35.05;15.35;;;10.30;91.60;;;;;;9174945;19;20011;-65
2022/12/23 14:45:50;;;;;;;29.77;13.57;;;10.30;91.50;;;;;;9172953;19;20014;-66
2022/12/23 14:49:14;;;;;;;32.85;13.95;;;10.30;91.50;;;;;;9170384;19;20030;-64
2022/12/23 14:52:50;;;;;;;27.63;13.07;;;10.30;91.50;;;;;;9170655;19;20015;-65
2022/12/23 14:56:12;;;;;;;28.33;12.25;;;10.30;91.50;;;;;;9166735;19;20664;-68
2022/12/23 14:59:23;;;;;;;31.38;13.20;;;10.30;91.50;;;;;;9167963;19;20014;-65
2022/12/23 15:02:34;;;;;;;27.98;12.90;;;10.30;91.50;;;;;;9168424;19;20014;-65
2022/12/23 15:05:41;;;;;;;44.40;17.35;;;10.30;91.50;;;;;;9164046;19;20068;-65
2022/12/23 15:08:46;;;;;;;31.15;14.05;;;10.30;91.50;;;;;;9167064;19;20015;-67
2022/12/23 15:11:52;;;;;;;29.60;12.30;;;10.30;91.50;;;;;;9175236;19;20014;-64
2022/12/23 15:15:00;;;;;;;26.23;12.25;;;10.30;91.50;;;;;;9170860;19;20015;-67
2022/12/23 15:18:05;;;;;;;26.80;12.10;;;10.30;91.50;;;;;;9177296;19;20527;-65
2022/12/23 15:21:12;;;;;;;27.83;12.70;;;10.30;91.50;;;;;;9175566;19;20050;-66
2022/12/23 15:24:18;;;;;;;26.80;11.95;;;10.30;91.50;;;;;;9176803;19;20014;-65
2022/12/23 15:27:22;;;;;;;30.08;12.65;;;10.30;91.50;;;;;;9172677;19;20018;-65
2022/12/23 15:30:37;;;;;;;28.15;11.90;;;10.30;91.50;;;;;;9175579;19;20010;-66
2022/12/23 15:33:41;;;;;;;33.03;13.27;;;10.30;91.50;;;;;;9175442;19;20026;-67
2022/12/23 15:37:11;;;;;;;31.27;12.77;;;10.20;91.50;;;;;;9171137;19;20014;-65
2022/12/23 15:40:26;;;;;;;24.58;11.32;;;10.30;91.50;;;;;;9171833;19;20081;-65
2022/12/23 15:43:30;;;;;;;21.48;10.70;;;10.30;91.60;;;;;;9172026;19;20047;-64
2022/12/23 15:46:40;;;;;;;21.60;9.02;;;10.30;91.60;;;;;;9171531;19;20496;-66
2022/12/23 15:49:44;;;;;;;23.17;10.38;;;10.20;91.50;;;;;;9172239;19;20385;-65
2022/12/23 15:52:50;;;;;;;28.00;9.88;;;10.30;91.60;;;;;;9173261;19;20025;-65
2022/12/23 15:55:54;;;;;;;27.95;10.82;;;10.20;91.50;;;;;;9171259;19;20041;-65
2022/12/23 15:58:58;;;;;;;;;;;10.20;91.50;;;;;;9173371;19;20021;-67
2022/12/23 16:02:17;;;;;;;22.97;9.67;;;10.20;91.60;;;;;;9171496;19;20276;-68
2022/12/23 16:05:41;;;;;;;20.58;9.25;;;10.20;91.50;;;;;;9172156;19;20599;-64
2022/12/23 16:08:47;;;;;;;22.52;10.02;;;10.20;91.60;;;;;;9172565;19;20783;-65
2022/12/23 16:11:55;;;;;;;21.40;9.60;;;10.20;91.60;;;;;;9173402;19;20372;-65
2022/12/23 16:15:01;;;;;;;21.77;10.50;;;10.10;91.60;;;;;;9164635;19;20022;-67
2022/12/23 16:18:22;;;;;;;25.35;10.32;;;10.10;91.60;;;;;;9169466;19;20014;-64
2022/12/23 16:21:30;;;;;;;22.85;10.98;;;10.10;91.60;;;;;;9169537;19;20015;-66
2022/12/23 16:24:34;;;;;;;19.52;9.88;;;10.10;91.60;;;;;;9170332;19;20018;-65